sensor_id;sensor_type;location;lat;lon;timestamp;P1;durP1;ratioP1;P2;durP2;ratioP2
12968;SDS011;6549;53.128;8.182;2023-06-22T00:02:08;9.82;;;7.78;;
12968;SDS011;6549;53.128;8.182;2023-06-22T00:05:08;18.48;;;14.93;;
12968;SDS011;6549;53.128;8.182;2023-06-22T00:08:09;11.80;;;9.68;;
12968;SDS011;6549;53.128;8.182;2023-06-22T00:11:09;10.75;;;8.52;;
12968;SDS011;6549;53.128;8.182;2023-06-22T00:14:09;10.30;;;8.68;;
12968;SDS011;6549;53.128;8.182;2023-06-22T00:17:10;10.27;;;8.00;;
12968;SDS011;6549;53.128;8.182;2023-06-22T00:20:10;9.27;;;6.95;;
12968;SDS011;6549;53.128;8.182;2023-06-22T00:23:11;11.27;;;8.77;;
12968;SDS011;6549;53.128;8.182;2023-06-22T00:26:11;11.63;;;8.95;;
12968;SDS011;6549;53.128;8.182;2023-06-22T00:29:12;21.73;;;17.63;;
12968;SDS011;6549;53.128;8.182;2023-06-22T00:32:12;15.20;;;12.32;;
12968;SDS011;6549;53.128;8.182;2023-06-22T00:35:12;12.60;;;9.63;;
12968;SDS011;6549;53.128;8.182;2023-06-22T00:38:13;10.77;;;7.95;;
12968;SDS011;6549;53.128;8.182;2023-06-22T00:41:13;17.10;;;14.27;;
12968;SDS011;6549;53.128;8.182;2023-06-22T00:44:13;17.45;;;14.60;;
12968;SDS011;6549;53.128;8.182;2023-06-22T00:47:14;16.85;;;13.60;;
12968;SDS011;6549;53.128;8.182;2023-06-22T00:50:21;14.48;;;11.27;;
12968;SDS011;6549;53.128;8.182;2023-06-22T00:53:24;11.63;;;9.38;;
12968;SDS011;6549;53.128;8.182;2023-06-22T00:56:24;8.88;;;7.75;;
12968;SDS011;6549;53.128;8.182;2023-06-22T00:59:25;16.95;;;14.32;;
12968;SDS011;6549;53.128;8.182;2023-06-22T01:02:26;11.80;;;9.40;;
12968;SDS011;6549;53.128;8.182;2023-06-22T01:05:26;10.95;;;8.90;;
12968;SDS011;6549;53.128;8.182;2023-06-22T01:08:46;10.07;;;7.57;;
12968;SDS011;6549;53.128;8.182;2023-06-22T01:11:56;11.43;;;8.75;;
12968;SDS011;6549;53.128;8.182;2023-06-22T01:15:10;11.30;;;8.82;;
12968;SDS011;6549;53.128;8.182;2023-06-22T01:18:28;20.00;;;15.98;;
12968;SDS011;6549;53.128;8.182;2023-06-22T01:21:31;14.38;;;11.60;;
12968;SDS011;6549;53.128;8.182;2023-06-22T01:24:41;11.05;;;9.50;;
12968;SDS011;6549;53.128;8.182;2023-06-22T01:31:19;11.77;;;8.98;;
12968;SDS011;6549;53.128;8.182;2023-06-22T01:34:23;13.38;;;9.85;;
12968;SDS011;6549;53.128;8.182;2023-06-22T01:37:24;11.45;;;9.15;;
12968;SDS011;6549;53.128;8.182;2023-06-22T01:40:25;11.70;;;9.57;;
12968;SDS011;6549;53.128;8.182;2023-06-22T01:43:26;9.85;;;8.13;;
12968;SDS011;6549;53.128;8.182;2023-06-22T01:46:28;12.45;;;9.77;;
12968;SDS011;6549;53.128;8.182;2023-06-22T01:49:29;12.45;;;9.43;;
12968;SDS011;6549;53.128;8.182;2023-06-22T01:52:30;10.73;;;8.57;;
12968;SDS011;6549;53.128;8.182;2023-06-22T01:55:30;10.20;;;7.97;;
12968;SDS011;6549;53.128;8.182;2023-06-22T01:58:31;10.13;;;7.95;;
12968;SDS011;6549;53.128;8.182;2023-06-22T02:01:35;9.65;;;6.93;;
12968;SDS011;6549;53.128;8.182;2023-06-22T02:05:05;10.40;;;7.85;;
12968;SDS011;6549;53.128;8.182;2023-06-22T02:08:11;8.27;;;6.38;;
12968;SDS011;6549;53.128;8.182;2023-06-22T02:11:18;8.40;;;7.10;;
12968;SDS011;6549;53.128;8.182;2023-06-22T02:14:21;11.07;;;8.73;;
12968;SDS011;6549;53.128;8.182;2023-06-22T02:17:23;10.43;;;8.23;;
12968;SDS011;6549;53.128;8.182;2023-06-22T02:20:25;18.55;;;15.02;;
12968;SDS011;6549;53.128;8.182;2023-06-22T02:23:25;13.32;;;10.75;;
12968;SDS011;6549;53.128;8.182;2023-06-22T02:26:26;9.93;;;8.23;;
12968;SDS011;6549;53.128;8.182;2023-06-22T02:29:27;10.25;;;8.18;;
12968;SDS011;6549;53.128;8.182;2023-06-22T02:32:28;10.13;;;8.30;;
12968;SDS011;6549;53.128;8.182;2023-06-22T02:35:29;8.07;;;6.22;;
12968;SDS011;6549;53.128;8.182;2023-06-22T02:38:35;8.90;;;7.00;;
12968;SDS011;6549;53.128;8.182;2023-06-22T02:41:36;9.77;;;7.55;;
12968;SDS011;6549;53.128;8.182;2023-06-22T02:44:36;9.40;;;6.65;;
12968;SDS011;6549;53.128;8.182;2023-06-22T02:47:37;8.20;;;6.50;;
12968;SDS011;6549;53.128;8.182;2023-06-22T02:50:38;9.80;;;7.97;;
12968;SDS011;6549;53.128;8.182;2023-06-22T02:53:38;9.70;;;8.27;;
12968;SDS011;6549;53.128;8.182;2023-06-22T02:56:38;15.77;;;13.15;;
12968;SDS011;6549;53.128;8.182;2023-06-22T02:59:40;18.60;;;14.82;;
12968;SDS011;6549;53.128;8.182;2023-06-22T03:02:42;10.52;;;9.32;;
12968;SDS011;6549;53.128;8.182;2023-06-22T03:05:44;13.13;;;11.05;;
12968;SDS011;6549;53.128;8.182;2023-06-22T03:08:44;12.10;;;9.57;;
12968;SDS011;6549;53.128;8.182;2023-06-22T03:11:45;10.63;;;8.45;;
12968;SDS011;6549;53.128;8.182;2023-06-22T03:14:45;10.23;;;7.72;;
12968;SDS011;6549;53.128;8.182;2023-06-22T03:17:46;12.07;;;8.77;;
12968;SDS011;6549;53.128;8.182;2023-06-22T03:20:47;11.18;;;9.05;;
12968;SDS011;6549;53.128;8.182;2023-06-22T03:23:47;11.70;;;9.20;;
12968;SDS011;6549;53.128;8.182;2023-06-22T03:26:47;8.68;;;7.10;;
12968;SDS011;6549;53.128;8.182;2023-06-22T03:29:48;8.55;;;6.32;;
12968;SDS011;6549;53.128;8.182;2023-06-22T03:32:48;7.72;;;6.03;;
12968;SDS011;6549;53.128;8.182;2023-06-22T03:35:49;8.18;;;6.50;;
12968;SDS011;6549;53.128;8.182;2023-06-22T03:38:50;9.18;;;7.57;;
12968;SDS011;6549;53.128;8.182;2023-06-22T03:41:51;9.65;;;7.22;;
12968;SDS011;6549;53.128;8.182;2023-06-22T03:44:51;10.27;;;8.32;;
12968;SDS011;6549;53.128;8.182;2023-06-22T03:47:52;8.35;;;7.07;;
12968;SDS011;6549;53.128;8.182;2023-06-22T03:50:53;9.48;;;7.47;;
12968;SDS011;6549;53.128;8.182;2023-06-22T03:53:53;11.70;;;8.90;;
12968;SDS011;6549;53.128;8.182;2023-06-22T03:56:54;21.58;;;17.58;;
12968;SDS011;6549;53.128;8.182;2023-06-22T03:59:56;19.10;;;15.73;;
12968;SDS011;6549;53.128;8.182;2023-06-22T04:02:57;17.38;;;13.73;;
12968;SDS011;6549;53.128;8.182;2023-06-22T04:05:57;14.73;;;12.43;;
12968;SDS011;6549;53.128;8.182;2023-06-22T04:08:57;15.25;;;11.57;;
12968;SDS011;6549;53.128;8.182;2023-06-22T04:11:58;16.73;;;12.57;;
12968;SDS011;6549;53.128;8.182;2023-06-22T04:14:58;28.20;;;22.65;;
12968;SDS011;6549;53.128;8.182;2023-06-22T04:17:58;22.13;;;17.10;;
12968;SDS011;6549;53.128;8.182;2023-06-22T04:20:59;18.95;;;14.80;;
12968;SDS011;6549;53.128;8.182;2023-06-22T04:23:59;21.92;;;16.27;;
12968;SDS011;6549;53.128;8.182;2023-06-22T04:26:59;19.75;;;15.95;;
12968;SDS011;6549;53.128;8.182;2023-06-22T04:30:03;22.90;;;18.15;;
12968;SDS011;6549;53.128;8.182;2023-06-22T04:33:04;29.73;;;21.83;;
12968;SDS011;6549;53.128;8.182;2023-06-22T04:36:04;29.15;;;23.23;;
12968;SDS011;6549;53.128;8.182;2023-06-22T04:39:05;27.42;;;20.13;;
12968;SDS011;6549;53.128;8.182;2023-06-22T04:42:06;28.38;;;23.42;;
12968;SDS011;6549;53.128;8.182;2023-06-22T04:45:07;33.17;;;25.38;;
12968;SDS011;6549;53.128;8.182;2023-06-22T04:48:08;23.75;;;18.08;;
12968;SDS011;6549;53.128;8.182;2023-06-22T04:51:09;27.98;;;22.50;;
12968;SDS011;6549;53.128;8.182;2023-06-22T04:54:10;20.13;;;17.05;;
12968;SDS011;6549;53.128;8.182;2023-06-22T04:57:10;26.92;;;21.25;;
12968;SDS011;6549;53.128;8.182;2023-06-22T05:00:11;21.27;;;16.95;;
12968;SDS011;6549;53.128;8.182;2023-06-22T05:03:12;21.85;;;18.10;;
12968;SDS011;6549;53.128;8.182;2023-06-22T05:06:12;19.27;;;15.88;;
12968;SDS011;6549;53.128;8.182;2023-06-22T05:09:14;23.17;;;18.92;;
12968;SDS011;6549;53.128;8.182;2023-06-22T05:12:14;24.45;;;19.67;;
12968;SDS011;6549;53.128;8.182;2023-06-22T05:15:15;22.02;;;17.75;;
12968;SDS011;6549;53.128;8.182;2023-06-22T05:18:15;18.58;;;15.77;;
12968;SDS011;6549;53.128;8.182;2023-06-22T05:21:15;20.63;;;15.13;;
12968;SDS011;6549;53.128;8.182;2023-06-22T05:24:16;27.40;;;21.73;;
12968;SDS011;6549;53.128;8.182;2023-06-22T05:27:16;20.30;;;15.80;;
12968;SDS011;6549;53.128;8.182;2023-06-22T05:30:17;24.58;;;20.98;;
12968;SDS011;6549;53.128;8.182;2023-06-22T05:33:18;23.33;;;19.35;;
12968;SDS011;6549;53.128;8.182;2023-06-22T05:36:19;27.48;;;23.13;;
12968;SDS011;6549;53.128;8.182;2023-06-22T05:42:21;22.43;;;18.43;;
12968;SDS011;6549;53.128;8.182;2023-06-22T05:45:22;20.17;;;17.83;;
12968;SDS011;6549;53.128;8.182;2023-06-22T05:48:22;21.17;;;15.68;;
12968;SDS011;6549;53.128;8.182;2023-06-22T05:51:23;20.08;;;16.35;;
12968;SDS011;6549;53.128;8.182;2023-06-22T05:54:23;21.80;;;17.15;;
12968;SDS011;6549;53.128;8.182;2023-06-22T05:57:23;21.67;;;17.02;;
12968;SDS011;6549;53.128;8.182;2023-06-22T06:00:24;20.10;;;15.88;;
12968;SDS011;6549;53.128;8.182;2023-06-22T06:06:30;17.90;;;13.25;;
12968;SDS011;6549;53.128;8.182;2023-06-22T06:09:31;16.70;;;13.45;;
12968;SDS011;6549;53.128;8.182;2023-06-22T06:12:31;15.90;;;13.02;;
12968;SDS011;6549;53.128;8.182;2023-06-22T06:15:32;16.23;;;12.13;;
12968;SDS011;6549;53.128;8.182;2023-06-22T06:18:32;13.30;;;9.90;;
12968;SDS011;6549;53.128;8.182;2023-06-22T06:21:33;13.38;;;10.75;;
12968;SDS011;6549;53.128;8.182;2023-06-22T06:24:33;11.55;;;9.23;;
12968;SDS011;6549;53.128;8.182;2023-06-22T06:27:33;12.45;;;8.48;;
12968;SDS011;6549;53.128;8.182;2023-06-22T06:30:34;12.80;;;9.25;;
12968;SDS011;6549;53.128;8.182;2023-06-22T06:33:37;12.55;;;9.23;;
12968;SDS011;6549;53.128;8.182;2023-06-22T06:36:37;14.98;;;9.35;;
12968;SDS011;6549;53.128;8.182;2023-06-22T06:39:37;16.20;;;10.63;;
12968;SDS011;6549;53.128;8.182;2023-06-22T06:42:38;13.98;;;9.73;;
12968;SDS011;6549;53.128;8.182;2023-06-22T06:45:40;13.65;;;10.77;;
12968;SDS011;6549;53.128;8.182;2023-06-22T06:48:40;14.68;;;10.90;;
12968;SDS011;6549;53.128;8.182;2023-06-22T06:51:41;15.10;;;12.60;;
12968;SDS011;6549;53.128;8.182;2023-06-22T06:54:41;15.68;;;12.05;;
12968;SDS011;6549;53.128;8.182;2023-06-22T06:57:42;12.68;;;10.13;;
12968;SDS011;6549;53.128;8.182;2023-06-22T07:00:43;12.30;;;9.20;;
12968;SDS011;6549;53.128;8.182;2023-06-22T07:03:43;15.93;;;12.00;;
12968;SDS011;6549;53.128;8.182;2023-06-22T07:06:44;11.98;;;10.45;;
12968;SDS011;6549;53.128;8.182;2023-06-22T07:09:44;10.73;;;8.60;;
12968;SDS011;6549;53.128;8.182;2023-06-22T07:12:44;10.98;;;9.25;;
12968;SDS011;6549;53.128;8.182;2023-06-22T07:15:45;10.27;;;8.40;;
12968;SDS011;6549;53.128;8.182;2023-06-22T07:18:45;12.45;;;10.88;;
12968;SDS011;6549;53.128;8.182;2023-06-22T07:21:45;12.43;;;9.52;;
12968;SDS011;6549;53.128;8.182;2023-06-22T07:24:45;11.27;;;9.20;;
12968;SDS011;6549;53.128;8.182;2023-06-22T07:27:55;10.40;;;8.00;;
12968;SDS011;6549;53.128;8.182;2023-06-22T07:30:57;9.98;;;7.28;;
12968;SDS011;6549;53.128;8.182;2023-06-22T07:33:57;11.55;;;7.63;;
12968;SDS011;6549;53.128;8.182;2023-06-22T07:36:58;10.50;;;7.50;;
12968;SDS011;6549;53.128;8.182;2023-06-22T07:39:58;9.02;;;6.80;;
12968;SDS011;6549;53.128;8.182;2023-06-22T07:42:58;7.95;;;6.80;;
12968;SDS011;6549;53.128;8.182;2023-06-22T07:45:59;9.63;;;6.15;;
12968;SDS011;6549;53.128;8.182;2023-06-22T07:48:59;8.15;;;5.78;;
12968;SDS011;6549;53.128;8.182;2023-06-22T07:52:01;7.80;;;6.38;;
12968;SDS011;6549;53.128;8.182;2023-06-22T07:55:02;7.78;;;5.50;;
12968;SDS011;6549;53.128;8.182;2023-06-22T07:58:02;8.77;;;5.72;;
12968;SDS011;6549;53.128;8.182;2023-06-22T08:01:02;7.13;;;5.28;;
12968;SDS011;6549;53.128;8.182;2023-06-22T08:04:03;8.07;;;5.82;;
12968;SDS011;6549;53.128;8.182;2023-06-22T08:07:05;7.65;;;4.07;;
12968;SDS011;6549;53.128;8.182;2023-06-22T08:10:12;6.55;;;5.35;;
12968;SDS011;6549;53.128;8.182;2023-06-22T08:13:12;5.28;;;3.90;;
12968;SDS011;6549;53.128;8.182;2023-06-22T08:16:13;7.68;;;5.35;;
12968;SDS011;6549;53.128;8.182;2023-06-22T08:19:13;8.40;;;5.93;;
12968;SDS011;6549;53.128;8.182;2023-06-22T08:22:13;8.40;;;5.15;;
12968;SDS011;6549;53.128;8.182;2023-06-22T08:25:13;7.50;;;5.68;;
12968;SDS011;6549;53.128;8.182;2023-06-22T08:28:14;6.85;;;4.82;;
12968;SDS011;6549;53.128;8.182;2023-06-22T08:31:14;8.70;;;5.60;;
12968;SDS011;6549;53.128;8.182;2023-06-22T08:34:15;7.82;;;5.50;;
12968;SDS011;6549;53.128;8.182;2023-06-22T08:37:15;8.40;;;6.25;;
12968;SDS011;6549;53.128;8.182;2023-06-22T08:40:16;7.20;;;5.90;;
12968;SDS011;6549;53.128;8.182;2023-06-22T08:43:16;8.07;;;5.88;;
12968;SDS011;6549;53.128;8.182;2023-06-22T08:46:17;7.70;;;5.97;;
12968;SDS011;6549;53.128;8.182;2023-06-22T08:49:22;7.28;;;5.20;;
12968;SDS011;6549;53.128;8.182;2023-06-22T08:52:22;8.90;;;7.30;;
12968;SDS011;6549;53.128;8.182;2023-06-22T08:55:23;8.50;;;5.72;;
12968;SDS011;6549;53.128;8.182;2023-06-22T08:58:23;10.30;;;6.68;;
12968;SDS011;6549;53.128;8.182;2023-06-22T09:01:24;9.38;;;5.68;;
12968;SDS011;6549;53.128;8.182;2023-06-22T09:04:24;8.73;;;7.00;;
12968;SDS011;6549;53.128;8.182;2023-06-22T09:07:25;9.80;;;6.38;;
12968;SDS011;6549;53.128;8.182;2023-06-22T09:10:26;7.47;;;5.82;;
12968;SDS011;6549;53.128;8.182;2023-06-22T09:13:27;12.38;;;6.82;;
12968;SDS011;6549;53.128;8.182;2023-06-22T09:16:30;8.55;;;6.97;;
12968;SDS011;6549;53.128;8.182;2023-06-22T09:19:30;8.40;;;7.18;;
12968;SDS011;6549;53.128;8.182;2023-06-22T09:22:31;10.10;;;7.50;;
12968;SDS011;6549;53.128;8.182;2023-06-22T09:25:32;10.45;;;7.50;;
12968;SDS011;6549;53.128;8.182;2023-06-22T09:28:32;8.35;;;6.60;;
12968;SDS011;6549;53.128;8.182;2023-06-22T09:31:33;8.10;;;5.70;;
12968;SDS011;6549;53.128;8.182;2023-06-22T09:34:33;7.93;;;6.38;;
12968;SDS011;6549;53.128;8.182;2023-06-22T09:37:34;8.90;;;6.97;;
12968;SDS011;6549;53.128;8.182;2023-06-22T09:40:34;7.00;;;5.60;;
12968;SDS011;6549;53.128;8.182;2023-06-22T09:43:39;7.18;;;6.10;;
12968;SDS011;6549;53.128;8.182;2023-06-22T09:46:40;6.95;;;4.55;;
12968;SDS011;6549;53.128;8.182;2023-06-22T09:49:40;8.38;;;6.40;;
12968;SDS011;6549;53.128;8.182;2023-06-22T09:52:40;8.67;;;6.00;;
12968;SDS011;6549;53.128;8.182;2023-06-22T09:55:44;7.57;;;5.57;;
12968;SDS011;6549;53.128;8.182;2023-06-22T09:58:45;8.55;;;5.93;;
12968;SDS011;6549;53.128;8.182;2023-06-22T10:01:46;8.73;;;5.47;;
12968;SDS011;6549;53.128;8.182;2023-06-22T10:04:46;7.22;;;5.38;;
12968;SDS011;6549;53.128;8.182;2023-06-22T10:07:47;7.40;;;5.20;;
12968;SDS011;6549;53.128;8.182;2023-06-22T10:10:47;6.20;;;4.97;;
12968;SDS011;6549;53.128;8.182;2023-06-22T10:13:47;6.93;;;5.20;;
12968;SDS011;6549;53.128;8.182;2023-06-22T10:16:48;8.23;;;6.10;;
12968;SDS011;6549;53.128;8.182;2023-06-22T10:19:48;6.65;;;5.15;;
12968;SDS011;6549;53.128;8.182;2023-06-22T10:22:49;6.90;;;4.70;;
12968;SDS011;6549;53.128;8.182;2023-06-22T10:25:49;6.82;;;4.63;;
12968;SDS011;6549;53.128;8.182;2023-06-22T10:28:49;6.53;;;4.40;;
12968;SDS011;6549;53.128;8.182;2023-06-22T10:31:50;6.85;;;4.85;;
12968;SDS011;6549;53.128;8.182;2023-06-22T10:34:50;5.85;;;4.50;;
12968;SDS011;6549;53.128;8.182;2023-06-22T10:37:51;7.80;;;5.75;;
12968;SDS011;6549;53.128;8.182;2023-06-22T10:40:51;8.50;;;6.43;;
12968;SDS011;6549;53.128;8.182;2023-06-22T10:43:51;6.65;;;4.65;;
12968;SDS011;6549;53.128;8.182;2023-06-22T10:46:52;9.33;;;7.27;;
12968;SDS011;6549;53.128;8.182;2023-06-22T10:49:52;7.50;;;5.78;;
12968;SDS011;6549;53.128;8.182;2023-06-22T10:52:53;7.88;;;5.82;;
12968;SDS011;6549;53.128;8.182;2023-06-22T10:55:54;8.02;;;6.40;;
12968;SDS011;6549;53.128;8.182;2023-06-22T10:58:54;7.70;;;6.22;;
12968;SDS011;6549;53.128;8.182;2023-06-22T11:01:55;8.90;;;6.50;;
12968;SDS011;6549;53.128;8.182;2023-06-22T11:04:56;7.30;;;5.90;;
12968;SDS011;6549;53.128;8.182;2023-06-22T11:07:59;6.15;;;4.82;;
12968;SDS011;6549;53.128;8.182;2023-06-22T11:11:00;8.80;;;5.87;;
12968;SDS011;6549;53.128;8.182;2023-06-22T11:14:00;10.15;;;7.95;;
12968;SDS011;6549;53.128;8.182;2023-06-22T11:17:00;8.20;;;6.20;;
12968;SDS011;6549;53.128;8.182;2023-06-22T11:20:01;9.32;;;5.75;;
12968;SDS011;6549;53.128;8.182;2023-06-22T11:23:02;6.85;;;5.18;;
12968;SDS011;6549;53.128;8.182;2023-06-22T11:26:02;8.60;;;6.10;;
12968;SDS011;6549;53.128;8.182;2023-06-22T11:29:03;7.63;;;5.57;;
12968;SDS011;6549;53.128;8.182;2023-06-22T11:32:06;7.10;;;5.00;;
12968;SDS011;6549;53.128;8.182;2023-06-22T11:35:07;7.85;;;6.40;;
12968;SDS011;6549;53.128;8.182;2023-06-22T11:38:08;7.72;;;5.65;;
12968;SDS011;6549;53.128;8.182;2023-06-22T11:41:08;6.78;;;5.28;;
12968;SDS011;6549;53.128;8.182;2023-06-22T11:44:09;7.60;;;5.93;;
12968;SDS011;6549;53.128;8.182;2023-06-22T11:47:10;8.43;;;5.53;;
12968;SDS011;6549;53.128;8.182;2023-06-22T11:50:10;7.85;;;5.97;;
12968;SDS011;6549;53.128;8.182;2023-06-22T11:53:10;7.15;;;5.40;;
12968;SDS011;6549;53.128;8.182;2023-06-22T11:56:11;7.80;;;5.70;;
12968;SDS011;6549;53.128;8.182;2023-06-22T11:59:11;7.33;;;5.27;;
12968;SDS011;6549;53.128;8.182;2023-06-22T12:02:11;7.45;;;5.57;;
12968;SDS011;6549;53.128;8.182;2023-06-22T12:05:12;6.50;;;5.47;;
12968;SDS011;6549;53.128;8.182;2023-06-22T12:08:12;8.02;;;6.38;;
12968;SDS011;6549;53.128;8.182;2023-06-22T12:11:13;7.13;;;5.80;;
12968;SDS011;6549;53.128;8.182;2023-06-22T12:14:14;9.67;;;7.00;;
12968;SDS011;6549;53.128;8.182;2023-06-22T12:17:14;9.32;;;6.38;;
12968;SDS011;6549;53.128;8.182;2023-06-22T12:20:14;7.70;;;5.53;;
12968;SDS011;6549;53.128;8.182;2023-06-22T12:23:15;10.15;;;6.53;;
12968;SDS011;6549;53.128;8.182;2023-06-22T12:26:15;8.27;;;5.32;;
12968;SDS011;6549;53.128;8.182;2023-06-22T12:29:16;8.23;;;6.38;;
12968;SDS011;6549;53.128;8.182;2023-06-22T12:32:16;7.15;;;6.10;;
12968;SDS011;6549;53.128;8.182;2023-06-22T12:35:17;7.25;;;5.85;;
12968;SDS011;6549;53.128;8.182;2023-06-22T12:38:17;8.10;;;6.20;;
12968;SDS011;6549;53.128;8.182;2023-06-22T12:41:17;10.07;;;6.70;;
12968;SDS011;6549;53.128;8.182;2023-06-22T12:44:18;7.47;;;5.80;;
12968;SDS011;6549;53.128;8.182;2023-06-22T12:47:18;8.43;;;7.22;;
12968;SDS011;6549;53.128;8.182;2023-06-22T12:50:20;7.32;;;5.40;;
12968;SDS011;6549;53.128;8.182;2023-06-22T12:53:20;8.32;;;7.10;;
12968;SDS011;6549;53.128;8.182;2023-06-22T12:59:22;7.50;;;5.10;;
12968;SDS011;6549;53.128;8.182;2023-06-22T13:02:23;7.40;;;5.80;;
12968;SDS011;6549;53.128;8.182;2023-06-22T13:05:23;8.35;;;6.43;;
12968;SDS011;6549;53.128;8.182;2023-06-22T13:08:23;8.52;;;6.25;;
12968;SDS011;6549;53.128;8.182;2023-06-22T13:11:24;8.00;;;6.30;;
12968;SDS011;6549;53.128;8.182;2023-06-22T13:14:24;8.30;;;6.82;;
12968;SDS011;6549;53.128;8.182;2023-06-22T13:17:24;8.48;;;6.13;;
12968;SDS011;6549;53.128;8.182;2023-06-22T13:20:24;9.63;;;7.53;;
12968;SDS011;6549;53.128;8.182;2023-06-22T13:23:25;8.95;;;6.30;;
12968;SDS011;6549;53.128;8.182;2023-06-22T13:26:26;9.77;;;7.63;;
12968;SDS011;6549;53.128;8.182;2023-06-22T13:29:28;10.70;;;8.00;;
12968;SDS011;6549;53.128;8.182;2023-06-22T13:32:28;8.70;;;7.00;;
12968;SDS011;6549;53.128;8.182;2023-06-22T13:35:29;8.25;;;7.15;;
12968;SDS011;6549;53.128;8.182;2023-06-22T13:38:29;9.10;;;7.00;;
12968;SDS011;6549;53.128;8.182;2023-06-22T13:41:31;9.18;;;6.90;;
12968;SDS011;6549;53.128;8.182;2023-06-22T13:44:32;8.88;;;6.95;;
12968;SDS011;6549;53.128;8.182;2023-06-22T13:47:32;8.38;;;6.28;;
12968;SDS011;6549;53.128;8.182;2023-06-22T13:50:32;8.98;;;5.25;;
12968;SDS011;6549;53.128;8.182;2023-06-22T13:53:33;8.98;;;6.65;;
12968;SDS011;6549;53.128;8.182;2023-06-22T13:56:33;9.00;;;6.00;;
12968;SDS011;6549;53.128;8.182;2023-06-22T13:59:34;10.77;;;6.95;;
12968;SDS011;6549;53.128;8.182;2023-06-22T14:02:34;7.05;;;5.45;;
12968;SDS011;6549;53.128;8.182;2023-06-22T14:05:35;8.73;;;6.28;;
12968;SDS011;6549;53.128;8.182;2023-06-22T14:08:36;9.98;;;6.38;;
12968;SDS011;6549;53.128;8.182;2023-06-22T14:11:36;8.35;;;6.25;;
12968;SDS011;6549;53.128;8.182;2023-06-22T14:14:37;9.55;;;6.65;;
12968;SDS011;6549;53.128;8.182;2023-06-22T14:17:37;8.50;;;5.80;;
12968;SDS011;6549;53.128;8.182;2023-06-22T14:20:38;8.45;;;6.57;;
12968;SDS011;6549;53.128;8.182;2023-06-22T14:23:40;10.13;;;6.20;;
12968;SDS011;6549;53.128;8.182;2023-06-22T14:26:40;10.10;;;7.75;;
12968;SDS011;6549;53.128;8.182;2023-06-22T14:29:40;9.73;;;6.97;;
12968;SDS011;6549;53.128;8.182;2023-06-22T14:32:42;10.95;;;7.85;;
12968;SDS011;6549;53.128;8.182;2023-06-22T14:35:43;11.20;;;8.38;;
12968;SDS011;6549;53.128;8.182;2023-06-22T14:38:43;10.88;;;7.68;;
12968;SDS011;6549;53.128;8.182;2023-06-22T14:41:44;9.38;;;7.38;;
12968;SDS011;6549;53.128;8.182;2023-06-22T14:44:44;11.95;;;7.07;;
12968;SDS011;6549;53.128;8.182;2023-06-22T14:47:45;10.90;;;7.35;;
12968;SDS011;6549;53.128;8.182;2023-06-22T14:50:45;11.90;;;7.63;;
12968;SDS011;6549;53.128;8.182;2023-06-22T14:53:45;11.23;;;8.00;;
12968;SDS011;6549;53.128;8.182;2023-06-22T14:56:46;9.85;;;7.35;;
12968;SDS011;6549;53.128;8.182;2023-06-22T14:59:47;12.20;;;7.68;;
12968;SDS011;6549;53.128;8.182;2023-06-22T15:02:48;11.85;;;7.40;;
12968;SDS011;6549;53.128;8.182;2023-06-22T15:05:49;9.75;;;7.45;;
12968;SDS011;6549;53.128;8.182;2023-06-22T15:08:49;10.15;;;7.13;;
12968;SDS011;6549;53.128;8.182;2023-06-22T15:11:49;11.90;;;7.50;;
12968;SDS011;6549;53.128;8.182;2023-06-22T15:14:49;9.57;;;7.07;;
12968;SDS011;6549;53.128;8.182;2023-06-22T15:17:50;10.98;;;7.38;;
12968;SDS011;6549;53.128;8.182;2023-06-22T15:20:50;11.48;;;7.25;;
12968;SDS011;6549;53.128;8.182;2023-06-22T15:23:50;10.10;;;6.63;;
12968;SDS011;6549;53.128;8.182;2023-06-22T15:26:51;10.73;;;6.85;;
12968;SDS011;6549;53.128;8.182;2023-06-22T15:29:51;9.57;;;6.60;;
12968;SDS011;6549;53.128;8.182;2023-06-22T15:32:51;11.65;;;6.78;;
12968;SDS011;6549;53.128;8.182;2023-06-22T15:35:52;9.35;;;7.00;;
12968;SDS011;6549;53.128;8.182;2023-06-22T15:38:55;11.32;;;7.55;;
12968;SDS011;6549;53.128;8.182;2023-06-22T15:41:56;9.98;;;6.93;;
12968;SDS011;6549;53.128;8.182;2023-06-22T15:44:57;12.07;;;7.10;;
12968;SDS011;6549;53.128;8.182;2023-06-22T15:47:57;9.73;;;7.18;;
12968;SDS011;6549;53.128;8.182;2023-06-22T15:50:58;9.70;;;6.82;;
12968;SDS011;6549;53.128;8.182;2023-06-22T15:53:59;12.40;;;7.15;;
12968;SDS011;6549;53.128;8.182;2023-06-22T15:56:59;10.73;;;6.80;;
12968;SDS011;6549;53.128;8.182;2023-06-22T16:00:00;8.25;;;6.38;;
12968;SDS011;6549;53.128;8.182;2023-06-22T16:03:00;8.65;;;5.60;;
12968;SDS011;6549;53.128;8.182;2023-06-22T16:06:00;7.85;;;5.57;;
12968;SDS011;6549;53.128;8.182;2023-06-22T16:09:01;8.57;;;5.38;;
12968;SDS011;6549;53.128;8.182;2023-06-22T16:12:01;8.57;;;5.15;;
12968;SDS011;6549;53.128;8.182;2023-06-22T16:15:03;8.52;;;5.20;;
12968;SDS011;6549;53.128;8.182;2023-06-22T16:18:03;7.15;;;4.97;;
12968;SDS011;6549;53.128;8.182;2023-06-22T16:21:04;7.20;;;4.60;;
12968;SDS011;6549;53.128;8.182;2023-06-22T16:24:05;8.05;;;5.25;;
12968;SDS011;6549;53.128;8.182;2023-06-22T16:27:06;7.57;;;4.95;;
12968;SDS011;6549;53.128;8.182;2023-06-22T16:30:06;7.63;;;4.60;;
12968;SDS011;6549;53.128;8.182;2023-06-22T16:33:07;7.82;;;4.55;;
12968;SDS011;6549;53.128;8.182;2023-06-22T16:36:07;7.43;;;4.57;;
12968;SDS011;6549;53.128;8.182;2023-06-22T16:39:08;8.55;;;4.63;;
12968;SDS011;6549;53.128;8.182;2023-06-22T16:42:08;6.82;;;4.20;;
12968;SDS011;6549;53.128;8.182;2023-06-22T16:45:09;6.35;;;4.53;;
12968;SDS011;6549;53.128;8.182;2023-06-22T16:48:09;8.02;;;4.45;;
12968;SDS011;6549;53.128;8.182;2023-06-22T16:51:09;7.53;;;4.45;;
12968;SDS011;6549;53.128;8.182;2023-06-22T16:54:12;6.90;;;4.93;;
12968;SDS011;6549;53.128;8.182;2023-06-22T16:57:16;7.30;;;4.97;;
12968;SDS011;6549;53.128;8.182;2023-06-22T17:00:18;7.03;;;4.53;;
12968;SDS011;6549;53.128;8.182;2023-06-22T17:03:21;7.03;;;4.82;;
12968;SDS011;6549;53.128;8.182;2023-06-22T17:06:28;7.22;;;4.72;;
12968;SDS011;6549;53.128;8.182;2023-06-22T17:09:28;7.35;;;4.20;;
12968;SDS011;6549;53.128;8.182;2023-06-22T17:12:31;7.38;;;3.90;;
12968;SDS011;6549;53.128;8.182;2023-06-22T17:15:32;7.75;;;4.80;;
12968;SDS011;6549;53.128;8.182;2023-06-22T17:18:36;6.53;;;3.92;;
12968;SDS011;6549;53.128;8.182;2023-06-22T17:21:38;8.57;;;4.60;;
12968;SDS011;6549;53.128;8.182;2023-06-22T17:24:39;7.68;;;4.15;;
12968;SDS011;6549;53.128;8.182;2023-06-22T17:27:41;5.85;;;3.60;;
12968;SDS011;6549;53.128;8.182;2023-06-22T17:30:41;7.43;;;4.13;;
12968;SDS011;6549;53.128;8.182;2023-06-22T17:33:41;6.70;;;3.70;;
12968;SDS011;6549;53.128;8.182;2023-06-22T17:36:42;7.57;;;4.00;;
12968;SDS011;6549;53.128;8.182;2023-06-22T17:39:44;7.03;;;3.50;;
12968;SDS011;6549;53.128;8.182;2023-06-22T17:42:51;6.05;;;4.10;;
12968;SDS011;6549;53.128;8.182;2023-06-22T17:46:03;6.75;;;3.60;;
12968;SDS011;6549;53.128;8.182;2023-06-22T17:49:07;5.97;;;3.65;;
12968;SDS011;6549;53.128;8.182;2023-06-22T17:52:17;6.22;;;3.80;;
12968;SDS011;6549;53.128;8.182;2023-06-22T17:55:22;5.47;;;3.70;;
12968;SDS011;6549;53.128;8.182;2023-06-22T17:58:23;5.53;;;3.60;;
12968;SDS011;6549;53.128;8.182;2023-06-22T18:04:29;6.82;;;3.65;;
12968;SDS011;6549;53.128;8.182;2023-06-22T18:07:33;8.82;;;3.65;;
12968;SDS011;6549;53.128;8.182;2023-06-22T18:10:36;6.18;;;3.30;;
12968;SDS011;6549;53.128;8.182;2023-06-22T18:13:40;5.32;;;3.65;;
12968;SDS011;6549;53.128;8.182;2023-06-22T18:16:43;6.43;;;3.40;;
12968;SDS011;6549;53.128;8.182;2023-06-22T18:19:48;6.22;;;3.42;;
12968;SDS011;6549;53.128;8.182;2023-06-22T18:22:49;6.85;;;3.90;;
12968;SDS011;6549;53.128;8.182;2023-06-22T18:25:50;7.00;;;4.10;;
12968;SDS011;6549;53.128;8.182;2023-06-22T18:28:55;5.68;;;3.65;;
12968;SDS011;6549;53.128;8.182;2023-06-22T18:31:56;8.88;;;4.30;;
12968;SDS011;6549;53.128;8.182;2023-06-22T18:34:57;5.47;;;3.60;;